Aviation Digital Data Service (ADDS)

Output produced by METARs form (0318 UTC 25 January 2020)
found at http://www.aviationweather.gov/metar/data/
 
METAR text: EBBR 250250Z VRB02KT 4500 BR SCT007 BKN009 00/M01 Q1022 NOSIG
Conditions at: EBBR (BRUSSELS NATIONA, BE) observed 0250 UTC 25 January 2020
Temperature: 0.0°C (32°F)
Dewpoint: -1.0°C (30°F) [RH = 93%]
Pressure (altimeter): 30.18 inches Hg (1022.0 mb)
Winds: variable direction winds at 2 MPH (2 knots; 1.0 m/s)
Visibility: 2.80 miles (4.51 km)
Ceiling: 900 feet AGL
Clouds: scattered clouds at 700 feet AGL
broken clouds at 900 feet AGL
Weather: BR  (mist)

METAR text: EBBR 250220Z VRB01KT 5000 BR SCT007 BKN009 M00/M02 Q1022 NOSIG
Conditions at: EBBR (BRUSSELS NATIONA, BE) observed 0220 UTC 25 January 2020
Temperature: 0.0°C (32°F)
Dewpoint: -2.0°C (28°F) [RH = 86%]
Pressure (altimeter): 30.18 inches Hg (1022.0 mb)
Winds: variable direction winds at 1 MPH (1 knots; 0.5 m/s)
Visibility: 3 miles ( 5 km)
Ceiling: 900 feet AGL
Clouds: scattered clouds at 700 feet AGL
broken clouds at 900 feet AGL
Weather: BR  (mist)

METAR text: EBBR 250150Z VRB01KT 5000 BR SCT008 BKN009 M00/M02 Q1022 NOSIG
Conditions at: EBBR (BRUSSELS NATIONA, BE) observed 0150 UTC 25 January 2020
Temperature: 0.0°C (32°F)
Dewpoint: -2.0°C (28°F) [RH = 86%]
Pressure (altimeter): 30.18 inches Hg (1022.0 mb)
Winds: variable direction winds at 1 MPH (1 knots; 0.5 m/s)
Visibility: 3 miles ( 5 km)
Ceiling: 900 feet AGL
Clouds: scattered clouds at 800 feet AGL
broken clouds at 900 feet AGL
Weather: BR  (mist)

METAR text: EBBR 250120Z VRB02KT 6000 SCT008 BKN010 M00/M02 Q1022 NOSIG
Conditions at: EBBR (BRUSSELS NATIONA, BE) observed 0120 UTC 25 January 2020
Temperature: 0.0°C (32°F)
Dewpoint: -2.0°C (28°F) [RH = 86%]
Pressure (altimeter): 30.18 inches Hg (1022.0 mb)
Winds: variable direction winds at 2 MPH (2 knots; 1.0 m/s)
Visibility: 4 miles ( 6 km)
Ceiling: 1000 feet AGL
Clouds: scattered clouds at 800 feet AGL
broken clouds at 1000 feet AGL
Weather: no significant weather observed at this time

METAR text: EBBR 250050Z 18004KT 6000 SCT006 BKN008 M00/M02 Q1022 NOSIG
Conditions at: EBBR (BRUSSELS NATIONA, BE) observed 0050 UTC 25 January 2020
Temperature: 0.0°C (32°F)
Dewpoint: -2.0°C (28°F) [RH = 86%]
Pressure (altimeter): 30.18 inches Hg (1022.0 mb)
Winds: from the S (180 degrees) at 5 MPH (4 knots; 2.1 m/s)
Visibility: 4 miles ( 6 km)
Ceiling: 800 feet AGL
Clouds: scattered clouds at 600 feet AGL
broken clouds at 800 feet AGL
Weather: no significant weather observed at this time

METAR text: EBBR 250020Z 19004KT 6000 SCT007 BKN009 00/M02 Q1022 NOSIG
Conditions at: EBBR (BRUSSELS NATIONA, BE) observed 0020 UTC 25 January 2020
Temperature: 0.0°C (32°F)
Dewpoint: -2.0°C (28°F) [RH = 86%]
Pressure (altimeter): 30.18 inches Hg (1022.0 mb)
Winds: from the S (190 degrees) at 5 MPH (4 knots; 2.1 m/s)
Visibility: 4 miles ( 6 km)
Ceiling: 900 feet AGL
Clouds: scattered clouds at 700 feet AGL
broken clouds at 900 feet AGL
Weather: no significant weather observed at this time

METAR text: EBBR 242350Z VRB01KT 6000 SCT006 BKN009 00/M01 Q1023 NOSIG
Conditions at: EBBR (BRUSSELS NATIONA, BE) observed 2350 UTC 24 January 2020
Temperature: 0.0°C (32°F)
Dewpoint: -1.0°C (30°F) [RH = 93%]
Pressure (altimeter): 30.21 inches Hg (1023.0 mb)
Winds: variable direction winds at 1 MPH (1 knots; 0.5 m/s)
Visibility: 4 miles ( 6 km)
Ceiling: 900 feet AGL
Clouds: scattered clouds at 600 feet AGL
broken clouds at 900 feet AGL
Weather: no significant weather observed at this time

METAR text: EBBR 242320Z VRB02KT 6000 SCT006 BKN009 00/M01 Q1023 NOSIG
Conditions at: EBBR (BRUSSELS NATIONA, BE) observed 2320 UTC 24 January 2020
Temperature: 0.0°C (32°F)
Dewpoint: -1.0°C (30°F) [RH = 93%]
Pressure (altimeter): 30.21 inches Hg (1023.0 mb)
Winds: variable direction winds at 2 MPH (2 knots; 1.0 m/s)
Visibility: 4 miles ( 6 km)
Ceiling: 900 feet AGL
Clouds: scattered clouds at 600 feet AGL
broken clouds at 900 feet AGL
Weather: no significant weather observed at this time

METAR text: EBBR 242250Z 18003KT 6000 SCT006 BKN008 01/M01 Q1023 NOSIG
Conditions at: EBBR (BRUSSELS NATIONA, BE) observed 2250 UTC 24 January 2020
Temperature: 1.0°C (34°F)
Dewpoint: -1.0°C (30°F) [RH = 86%]
Pressure (altimeter): 30.21 inches Hg (1023.0 mb)
Winds: from the S (180 degrees) at 3 MPH (3 knots; 1.5 m/s)
Visibility: 4 miles ( 6 km)
Ceiling: 800 feet AGL
Clouds: scattered clouds at 600 feet AGL
broken clouds at 800 feet AGL
Weather: no significant weather observed at this time

METAR text: EBBR 242220Z 17003KT 6000 SCT007 BKN009 01/M01 Q1023 NOSIG
Conditions at: EBBR (BRUSSELS NATIONA, BE) observed 2220 UTC 24 January 2020
Temperature: 1.0°C (34°F)
Dewpoint: -1.0°C (30°F) [RH = 86%]
Pressure (altimeter): 30.21 inches Hg (1023.0 mb)
Winds: from the S (170 degrees) at 3 MPH (3 knots; 1.5 m/s)
Visibility: 4 miles ( 6 km)
Ceiling: 900 feet AGL
Clouds: scattered clouds at 700 feet AGL
broken clouds at 900 feet AGL
Weather: no significant weather observed at this time

METAR text: EBBR 242150Z 15002KT 6000 SCT006 BKN007 01/M00 Q1023 NOSIG
Conditions at: EBBR (BRUSSELS NATIONA, BE) observed 2150 UTC 24 January 2020
Temperature: 1.0°C (34°F)
Dewpoint: 0.0°C (32°F) [RH = 93%]
Pressure (altimeter): 30.21 inches Hg (1023.0 mb)
Winds: from the SSE (150 degrees) at 2 MPH (2 knots; 1.0 m/s)
Visibility: 4 miles ( 6 km)
Ceiling: 700 feet AGL
Clouds: scattered clouds at 600 feet AGL
broken clouds at 700 feet AGL
Weather: no significant weather observed at this time

METAR text: EBBR 242120Z 15002KT 6000 SCT006 BKN007 01/M00 Q1023 NOSIG
Conditions at: EBBR (BRUSSELS NATIONA, BE) observed 2120 UTC 24 January 2020
Temperature: 1.0°C (34°F)
Dewpoint: 0.0°C (32°F) [RH = 93%]
Pressure (altimeter): 30.21 inches Hg (1023.0 mb)
Winds: from the SSE (150 degrees) at 2 MPH (2 knots; 1.0 m/s)
Visibility: 4 miles ( 6 km)
Ceiling: 700 feet AGL
Clouds: scattered clouds at 600 feet AGL
broken clouds at 700 feet AGL
Weather: no significant weather observed at this time

METAR text: EBBR 242050Z 11002KT 6000 SCT006 BKN007 01/M00 Q1023 NOSIG
Conditions at: EBBR (BRUSSELS NATIONA, BE) observed 2050 UTC 24 January 2020
Temperature: 1.0°C (34°F)
Dewpoint: 0.0°C (32°F) [RH = 93%]
Pressure (altimeter): 30.21 inches Hg (1023.0 mb)
Winds: from the ESE (110 degrees) at 2 MPH (2 knots; 1.0 m/s)
Visibility: 4 miles ( 6 km)
Ceiling: 700 feet AGL
Clouds: scattered clouds at 600 feet AGL
broken clouds at 700 feet AGL
Weather: no significant weather observed at this time

METAR text: EBBR 242020Z VRB01KT 6000 SCT005 BKN007 01/M00 Q1023 NOSIG
Conditions at: EBBR (BRUSSELS NATIONA, BE) observed 2020 UTC 24 January 2020
Temperature: 1.0°C (34°F)
Dewpoint: 0.0°C (32°F) [RH = 93%]
Pressure (altimeter): 30.21 inches Hg (1023.0 mb)
Winds: variable direction winds at 1 MPH (1 knots; 0.5 m/s)
Visibility: 4 miles ( 6 km)
Ceiling: 700 feet AGL
Clouds: scattered clouds at 500 feet AGL
broken clouds at 700 feet AGL
Weather: no significant weather observed at this time

METAR text: EBBR 241950Z VRB02KT 5000 BR SCT006 BKN007 01/M00 Q1023 TEMPO 3500 BR BKN004
Conditions at: EBBR (BRUSSELS NATIONA, BE) observed 1950 UTC 24 January 2020
Temperature: 1.0°C (34°F)
Dewpoint: 0.0°C (32°F) [RH = 93%]
Pressure (altimeter): 30.21 inches Hg (1023.0 mb)
Winds: variable direction winds at 2 MPH (2 knots; 1.0 m/s)
Visibility: 3 miles ( 5 km)
Ceiling: 700 feet AGL
Clouds: scattered clouds at 600 feet AGL
broken clouds at 700 feet AGL
Weather: BR  (mist)

METAR text: EBBR 241920Z 00000KT 5000 BR SCT006 BKN007 01/M00 Q1023 TEMPO 3500 BR BKN004
Conditions at: EBBR (BRUSSELS NATIONA, BE) observed 1920 UTC 24 January 2020
Temperature: 1.0°C (34°F)
Dewpoint: 0.0°C (32°F) [RH = 93%]
Pressure (altimeter): 30.21 inches Hg (1023.0 mb)
Winds: calm
Visibility: 3 miles ( 5 km)
Ceiling: 700 feet AGL
Clouds: scattered clouds at 600 feet AGL
broken clouds at 700 feet AGL
Weather: BR  (mist)

METAR text: EBBR 241850Z VRB01KT 5000 BR SCT006 BKN007 01/M00 Q1023 TEMPO 3500 BR BKN004
Conditions at: EBBR (BRUSSELS NATIONA, BE) observed 1850 UTC 24 January 2020
Temperature: 1.0°C (34°F)
Dewpoint: 0.0°C (32°F) [RH = 93%]
Pressure (altimeter): 30.21 inches Hg (1023.0 mb)
Winds: variable direction winds at 1 MPH (1 knots; 0.5 m/s)
Visibility: 3 miles ( 5 km)
Ceiling: 700 feet AGL
Clouds: scattered clouds at 600 feet AGL
broken clouds at 700 feet AGL
Weather: BR  (mist)

METAR text: EBBR 241820Z 00000KT 5000 BR BKN005 BKN006 01/M01 Q1023 TEMPO 3500 BR BKN004
Conditions at: EBBR (BRUSSELS NATIONA, BE) observed 1820 UTC 24 January 2020
Temperature: 1.0°C (34°F)
Dewpoint: -1.0°C (30°F) [RH = 86%]
Pressure (altimeter): 30.21 inches Hg (1023.0 mb)
Winds: calm
Visibility: 3 miles ( 5 km)
Ceiling: 500 feet AGL
Clouds: broken clouds at 500 feet AGL
broken clouds at 600 feet AGL
Weather: BR  (mist)

METAR text: EBBR 241750Z 21003KT 190V260 5000 BR OVC006 01/M00 Q1023 TEMPO 4500 BR BKN004
Conditions at: EBBR (BRUSSELS NATIONA, BE) observed 1750 UTC 24 January 2020
Temperature: 1.0°C (34°F)
Dewpoint: 0.0°C (32°F) [RH = 93%]
Pressure (altimeter): 30.21 inches Hg (1023.0 mb)
Winds: from the SSW (210 degrees) at 3 MPH (3 knots; 1.5 m/s)
Visibility: 3 miles ( 5 km)
Ceiling: 600 feet AGL
Clouds: overcast cloud deck at 600 feet AGL
Weather: BR  (mist)

METAR text: EBBR 241720Z 19003KT 6000 OVC006 01/M00 Q1022 TEMPO 4500 BR BKN004
Conditions at: EBBR (BRUSSELS NATIONA, BE) observed 1720 UTC 24 January 2020
Temperature: 1.0°C (34°F)
Dewpoint: 0.0°C (32°F) [RH = 93%]
Pressure (altimeter): 30.18 inches Hg (1022.0 mb)
Winds: from the S (190 degrees) at 3 MPH (3 knots; 1.5 m/s)
Visibility: 4 miles ( 6 km)
Ceiling: 600 feet AGL
Clouds: overcast cloud deck at 600 feet AGL
Weather: no significant weather observed at this time

METAR text: EBBR 241650Z VRB01KT 6000 OVC006 01/M00 Q1022 TEMPO 4500 BR BKN004
Conditions at: EBBR (BRUSSELS NATIONA, BE) observed 1650 UTC 24 January 2020
Temperature: 1.0°C (34°F)
Dewpoint: 0.0°C (32°F) [RH = 93%]
Pressure (altimeter): 30.18 inches Hg (1022.0 mb)
Winds: variable direction winds at 1 MPH (1 knots; 0.5 m/s)
Visibility: 4 miles ( 6 km)
Ceiling: 600 feet AGL
Clouds: overcast cloud deck at 600 feet AGL
Weather: no significant weather observed at this time

METAR text: EBBR 241620Z VRB02KT 5000 BR OVC005 01/M00 Q1022 NOSIG
Conditions at: EBBR (BRUSSELS NATIONA, BE) observed 1620 UTC 24 January 2020
Temperature: 1.0°C (34°F)
Dewpoint: 0.0°C (32°F) [RH = 93%]
Pressure (altimeter): 30.18 inches Hg (1022.0 mb)
Winds: variable direction winds at 2 MPH (2 knots; 1.0 m/s)
Visibility: 3 miles ( 5 km)
Ceiling: 500 feet AGL
Clouds: overcast cloud deck at 500 feet AGL
Weather: BR  (mist)

METAR text: EBBR 241550Z 18004KT 5000 BR OVC005 01/M00 Q1022 NOSIG
Conditions at: EBBR (BRUSSELS NATIONA, BE) observed 1550 UTC 24 January 2020
Temperature: 1.0°C (34°F)
Dewpoint: 0.0°C (32°F) [RH = 93%]
Pressure (altimeter): 30.18 inches Hg (1022.0 mb)
Winds: from the S (180 degrees) at 5 MPH (4 knots; 2.1 m/s)
Visibility: 3 miles ( 5 km)
Ceiling: 500 feet AGL
Clouds: overcast cloud deck at 500 feet AGL
Weather: BR  (mist)

METAR text: EBBR 241520Z 19003KT 160V230 4000 BR OVC004 01/00 Q1022 NOSIG
Conditions at: EBBR (BRUSSELS NATIONA, BE) observed 1520 UTC 24 January 2020
Temperature: 1.0°C (34°F)
Dewpoint: 0.0°C (32°F) [RH = 93%]
Pressure (altimeter): 30.18 inches Hg (1022.0 mb)
Winds: from the S (190 degrees) at 3 MPH (3 knots; 1.5 m/s)
Visibility: 2.49 miles (4.01 km)
Ceiling: 400 feet AGL
Clouds: overcast cloud deck at 400 feet AGL
Weather: BR  (mist)

METAR text: EBBR 241450Z 21003KT 180V330 4000 BR OVC004 01/00 Q1022 NOSIG
Conditions at: EBBR (BRUSSELS NATIONA, BE) observed 1450 UTC 24 January 2020
Temperature: 1.0°C (34°F)
Dewpoint: 0.0°C (32°F) [RH = 93%]
Pressure (altimeter): 30.18 inches Hg (1022.0 mb)
Winds: from the SSW (210 degrees) at 3 MPH (3 knots; 1.5 m/s)
Visibility: 2.49 miles (4.01 km)
Ceiling: 400 feet AGL
Clouds: overcast cloud deck at 400 feet AGL
Weather: BR  (mist)

METAR text: EBBR 241420Z 00000KT 3500 BR OVC004 01/00 Q1023 NOSIG
Conditions at: EBBR (BRUSSELS NATIONA, BE) observed 1420 UTC 24 January 2020
Temperature: 1.0°C (34°F)
Dewpoint: 0.0°C (32°F) [RH = 93%]
Pressure (altimeter): 30.21 inches Hg (1023.0 mb)
Winds: calm
Visibility: 2.17 miles (3.49 km)
Ceiling: 400 feet AGL
Clouds: overcast cloud deck at 400 feet AGL
Weather: BR  (mist)

METAR text: EBBR 241350Z VRB01KT 3500 BR OVC004 01/00 Q1023 NOSIG
Conditions at: EBBR (BRUSSELS NATIONA, BE) observed 1350 UTC 24 January 2020
Temperature: 1.0°C (34°F)
Dewpoint: 0.0°C (32°F) [RH = 93%]
Pressure (altimeter): 30.21 inches Hg (1023.0 mb)
Winds: variable direction winds at 1 MPH (1 knots; 0.5 m/s)
Visibility: 2.17 miles (3.49 km)
Ceiling: 400 feet AGL
Clouds: overcast cloud deck at 400 feet AGL
Weather: BR  (mist)

METAR text: EBBR 241320Z VRB02KT 2800 BR OVC004 01/00 Q1023 NOSIG
Conditions at: EBBR (BRUSSELS NATIONA, BE) observed 1320 UTC 24 January 2020
Temperature: 1.0°C (34°F)
Dewpoint: 0.0°C (32°F) [RH = 93%]
Pressure (altimeter): 30.21 inches Hg (1023.0 mb)
Winds: variable direction winds at 2 MPH (2 knots; 1.0 m/s)
Visibility: 1.74 miles (2.80 km)
Ceiling: 400 feet AGL
Clouds: overcast cloud deck at 400 feet AGL
Weather: BR  (mist)

METAR text: EBBR 241250Z VRB02KT 3200 BR OVC004 01/00 Q1023 NOSIG
Conditions at: EBBR (BRUSSELS NATIONA, BE) observed 1250 UTC 24 January 2020
Temperature: 1.0°C (34°F)
Dewpoint: 0.0°C (32°F) [RH = 93%]
Pressure (altimeter): 30.21 inches Hg (1023.0 mb)
Winds: variable direction winds at 2 MPH (2 knots; 1.0 m/s)
Visibility: 1.99 miles (3.20 km)
Ceiling: 400 feet AGL
Clouds: overcast cloud deck at 400 feet AGL
Weather: BR  (mist)

METAR text: EBBR 241220Z 26003KT 230V300 3200 BR OVC004 01/00 Q1024 NOSIG
Conditions at: EBBR (BRUSSELS NATIONA, BE) observed 1220 UTC 24 January 2020
Temperature: 1.0°C (34°F)
Dewpoint: 0.0°C (32°F) [RH = 93%]
Pressure (altimeter): 30.24 inches Hg (1024.0 mb)
Winds: from the W (260 degrees) at 3 MPH (3 knots; 1.5 m/s)
Visibility: 1.99 miles (3.20 km)
Ceiling: 400 feet AGL
Clouds: overcast cloud deck at 400 feet AGL
Weather: BR  (mist)

METAR text: EBBR 241150Z 29003KT 270V330 3200 BR OVC004 01/00 Q1024 NOSIG
Conditions at: EBBR (BRUSSELS NATIONA, BE) observed 1150 UTC 24 January 2020
Temperature: 1.0°C (34°F)
Dewpoint: 0.0°C (32°F) [RH = 93%]
Pressure (altimeter): 30.24 inches Hg (1024.0 mb)
Winds: from the WNW (290 degrees) at 3 MPH (3 knots; 1.5 m/s)
Visibility: 1.99 miles (3.20 km)
Ceiling: 400 feet AGL
Clouds: overcast cloud deck at 400 feet AGL
Weather: BR  (mist)

METAR text: EBBR 241120Z 26003KT 230V290 3200 BR OVC004 02/01 Q1024 NOSIG
Conditions at: EBBR (BRUSSELS NATIONA, BE) observed 1120 UTC 24 January 2020
Temperature: 2.0°C (36°F)
Dewpoint: 1.0°C (34°F) [RH = 93%]
Pressure (altimeter): 30.24 inches Hg (1024.0 mb)
Winds: from the W (260 degrees) at 3 MPH (3 knots; 1.5 m/s)
Visibility: 1.99 miles (3.20 km)
Ceiling: 400 feet AGL
Clouds: overcast cloud deck at 400 feet AGL
Weather: BR  (mist)

METAR text: EBBR 241050Z 18003KT 3200 BR OVC004 02/01 Q1024 NOSIG
Conditions at: EBBR (BRUSSELS NATIONA, BE) observed 1050 UTC 24 January 2020
Temperature: 2.0°C (36°F)
Dewpoint: 1.0°C (34°F) [RH = 93%]
Pressure (altimeter): 30.24 inches Hg (1024.0 mb)
Winds: from the S (180 degrees) at 3 MPH (3 knots; 1.5 m/s)
Visibility: 1.99 miles (3.20 km)
Ceiling: 400 feet AGL
Clouds: overcast cloud deck at 400 feet AGL
Weather: BR  (mist)

METAR text: EBBR 241020Z VRB02KT 3200 BR OVC004 02/01 Q1024 NOSIG
Conditions at: EBBR (BRUSSELS NATIONA, BE) observed 1020 UTC 24 January 2020
Temperature: 2.0°C (36°F)
Dewpoint: 1.0°C (34°F) [RH = 93%]
Pressure (altimeter): 30.24 inches Hg (1024.0 mb)
Winds: variable direction winds at 2 MPH (2 knots; 1.0 m/s)
Visibility: 1.99 miles (3.20 km)
Ceiling: 400 feet AGL
Clouds: overcast cloud deck at 400 feet AGL
Weather: BR  (mist)

METAR text: EBBR 240950Z 20003KT 170V240 3600 BR OVC004 02/01 Q1024 NOSIG
Conditions at: EBBR (BRUSSELS NATIONA, BE) observed 0950 UTC 24 January 2020
Temperature: 2.0°C (36°F)
Dewpoint: 1.0°C (34°F) [RH = 93%]
Pressure (altimeter): 30.24 inches Hg (1024.0 mb)
Winds: from the SSW (200 degrees) at 3 MPH (3 knots; 1.5 m/s)
Visibility: 2.24 miles (3.60 km)
Ceiling: 400 feet AGL
Clouds: overcast cloud deck at 400 feet AGL
Weather: BR  (mist)

METAR text: EBBR 240920Z 18003KT 3600 BR OVC004 01/01 Q1024 NOSIG
Conditions at: EBBR (BRUSSELS NATIONA, BE) observed 0920 UTC 24 January 2020
Temperature: 1.0°C (34°F)
Dewpoint: 1.0°C (34°F) [RH = 100%]
Pressure (altimeter): 30.24 inches Hg (1024.0 mb)
Winds: from the S (180 degrees) at 3 MPH (3 knots; 1.5 m/s)
Visibility: 2.24 miles (3.60 km)
Ceiling: 400 feet AGL
Clouds: overcast cloud deck at 400 feet AGL
Weather: BR  (mist)

METAR text: EBBR 240850Z 18004KT 3200 BR OVC004 01/01 Q1024 NOSIG
Conditions at: EBBR (BRUSSELS NATIONA, BE) observed 0850 UTC 24 January 2020
Temperature: 1.0°C (34°F)
Dewpoint: 1.0°C (34°F) [RH = 100%]
Pressure (altimeter): 30.24 inches Hg (1024.0 mb)
Winds: from the S (180 degrees) at 5 MPH (4 knots; 2.1 m/s)
Visibility: 1.99 miles (3.20 km)
Ceiling: 400 feet AGL
Clouds: overcast cloud deck at 400 feet AGL
Weather: BR  (mist)

METAR text: EBBR 240820Z 19003KT 4000 BR OVC004 01/01 Q1024 NOSIG
Conditions at: EBBR (BRUSSELS NATIONA, BE) observed 0820 UTC 24 January 2020
Temperature: 1.0°C (34°F)
Dewpoint: 1.0°C (34°F) [RH = 100%]
Pressure (altimeter): 30.24 inches Hg (1024.0 mb)
Winds: from the S (190 degrees) at 3 MPH (3 knots; 1.5 m/s)
Visibility: 2.49 miles (4.01 km)
Ceiling: 400 feet AGL
Clouds: overcast cloud deck at 400 feet AGL
Weather: BR  (mist)

METAR text: EBBR 240750Z 25003KT 5000 BR OVC005 01/00 Q1023 NOSIG
Conditions at: EBBR (BRUSSELS NATIONA, BE) observed 0750 UTC 24 January 2020
Temperature: 1.0°C (34°F)
Dewpoint: 0.0°C (32°F) [RH = 93%]
Pressure (altimeter): 30.21 inches Hg (1023.0 mb)
Winds: from the WSW (250 degrees) at 3 MPH (3 knots; 1.5 m/s)
Visibility: 3 miles ( 5 km)
Ceiling: 500 feet AGL
Clouds: overcast cloud deck at 500 feet AGL
Weather: BR  (mist)

METAR text: EBBR 240720Z 21003KT 160V230 5000 BR OVC005 02/01 Q1023 NOSIG
Conditions at: EBBR (BRUSSELS NATIONA, BE) observed 0720 UTC 24 January 2020
Temperature: 2.0°C (36°F)
Dewpoint: 1.0°C (34°F) [RH = 93%]
Pressure (altimeter): 30.21 inches Hg (1023.0 mb)
Winds: from the SSW (210 degrees) at 3 MPH (3 knots; 1.5 m/s)
Visibility: 3 miles ( 5 km)
Ceiling: 500 feet AGL
Clouds: overcast cloud deck at 500 feet AGL
Weather: BR  (mist)

METAR text: EBBR 240650Z 24004KT 5000 BR OVC005 02/01 Q1023 NOSIG
Conditions at: EBBR (BRUSSELS NATIONA, BE) observed 0650 UTC 24 January 2020
Temperature: 2.0°C (36°F)
Dewpoint: 1.0°C (34°F) [RH = 93%]
Pressure (altimeter): 30.21 inches Hg (1023.0 mb)
Winds: from the WSW (240 degrees) at 5 MPH (4 knots; 2.1 m/s)
Visibility: 3 miles ( 5 km)
Ceiling: 500 feet AGL
Clouds: overcast cloud deck at 500 feet AGL
Weather: BR  (mist)

METAR text: EBBR 240620Z 18004KT 5000 BR BKN005 02/01 Q1023 NOSIG
Conditions at: EBBR (BRUSSELS NATIONA, BE) observed 0620 UTC 24 January 2020
Temperature: 2.0°C (36°F)
Dewpoint: 1.0°C (34°F) [RH = 93%]
Pressure (altimeter): 30.21 inches Hg (1023.0 mb)
Winds: from the S (180 degrees) at 5 MPH (4 knots; 2.1 m/s)
Visibility: 3 miles ( 5 km)
Ceiling: 500 feet AGL
Clouds: broken clouds at 500 feet AGL
Weather: BR  (mist)

METAR text: EBBR 240550Z 19004KT 170V240 5000 BR BKN005 02/01 Q1023 NOSIG
Conditions at: EBBR (BRUSSELS NATIONA, BE) observed 0550 UTC 24 January 2020
Temperature: 2.0°C (36°F)
Dewpoint: 1.0°C (34°F) [RH = 93%]
Pressure (altimeter): 30.21 inches Hg (1023.0 mb)
Winds: from the S (190 degrees) at 5 MPH (4 knots; 2.1 m/s)
Visibility: 3 miles ( 5 km)
Ceiling: 500 feet AGL
Clouds: broken clouds at 500 feet AGL
Weather: BR  (mist)

METAR text: EBBR 240520Z VRB02KT 5000 BR BKN005 02/01 Q1023 NOSIG
Conditions at: EBBR (BRUSSELS NATIONA, BE) observed 0520 UTC 24 January 2020
Temperature: 2.0°C (36°F)
Dewpoint: 1.0°C (34°F) [RH = 93%]
Pressure (altimeter): 30.21 inches Hg (1023.0 mb)
Winds: variable direction winds at 2 MPH (2 knots; 1.0 m/s)
Visibility: 3 miles ( 5 km)
Ceiling: 500 feet AGL
Clouds: broken clouds at 500 feet AGL
Weather: BR  (mist)

METAR text: EBBR 240450Z VRB01KT 5000 BR BKN005 02/01 Q1023 NOSIG
Conditions at: EBBR (BRUSSELS NATIONA, BE) observed 0450 UTC 24 January 2020
Temperature: 2.0°C (36°F)
Dewpoint: 1.0°C (34°F) [RH = 93%]
Pressure (altimeter): 30.21 inches Hg (1023.0 mb)
Winds: variable direction winds at 1 MPH (1 knots; 0.5 m/s)
Visibility: 3 miles ( 5 km)
Ceiling: 500 feet AGL
Clouds: broken clouds at 500 feet AGL
Weather: BR  (mist)

METAR text: EBBR 240420Z VRB02KT 5000 BR BKN005 02/01 Q1024 NOSIG
Conditions at: EBBR (BRUSSELS NATIONA, BE) observed 0420 UTC 24 January 2020
Temperature: 2.0°C (36°F)
Dewpoint: 1.0°C (34°F) [RH = 93%]
Pressure (altimeter): 30.24 inches Hg (1024.0 mb)
Winds: variable direction winds at 2 MPH (2 knots; 1.0 m/s)
Visibility: 3 miles ( 5 km)
Ceiling: 500 feet AGL
Clouds: broken clouds at 500 feet AGL
Weather: BR  (mist)

METAR text: EBBR 240350Z VRB01KT 5000 BR BKN005 02/01 Q1024 NOSIG
Conditions at: EBBR (BRUSSELS NATIONA, BE) observed 0350 UTC 24 January 2020
Temperature: 2.0°C (36°F)
Dewpoint: 1.0°C (34°F) [RH = 93%]
Pressure (altimeter): 30.24 inches Hg (1024.0 mb)
Winds: variable direction winds at 1 MPH (1 knots; 0.5 m/s)
Visibility: 3 miles ( 5 km)
Ceiling: 500 feet AGL
Clouds: broken clouds at 500 feet AGL
Weather: BR  (mist)

METAR text: EBBR 240320Z VRB02KT 6000 BKN005 02/01 Q1024 NOSIG
Conditions at: EBBR (BRUSSELS NATIONA, BE) observed 0320 UTC 24 January 2020
Temperature: 2.0°C (36°F)
Dewpoint: 1.0°C (34°F) [RH = 93%]
Pressure (altimeter): 30.24 inches Hg (1024.0 mb)
Winds: variable direction winds at 2 MPH (2 knots; 1.0 m/s)
Visibility: 4 miles ( 6 km)
Ceiling: 500 feet AGL
Clouds: broken clouds at 500 feet AGL
Weather: no significant weather observed at this time

METAR text: EBBR 240250Z VRB01KT 6000 BKN006 02/01 Q1024 NOSIG
Conditions at: EBBR (BRUSSELS NATIONA, BE) observed 0250 UTC 24 January 2020
Temperature: 2.0°C (36°F)
Dewpoint: 1.0°C (34°F) [RH = 93%]
Pressure (altimeter): 30.24 inches Hg (1024.0 mb)
Winds: variable direction winds at 1 MPH (1 knots; 0.5 m/s)
Visibility: 4 miles ( 6 km)
Ceiling: 600 feet AGL
Clouds: broken clouds at 600 feet AGL
Weather: no significant weather observed at this time

METAR text: EBBR 240220Z VRB02KT 4500 BR SCT005 BKN006 02/01 Q1025 NOSIG
Conditions at: EBBR (BRUSSELS NATIONA, BE) observed 0220 UTC 24 January 2020
Temperature: 2.0°C (36°F)
Dewpoint: 1.0°C (34°F) [RH = 93%]
Pressure (altimeter): 30.27 inches Hg (1025.0 mb)
Winds: variable direction winds at 2 MPH (2 knots; 1.0 m/s)
Visibility: 2.80 miles (4.51 km)
Ceiling: 600 feet AGL
Clouds: scattered clouds at 500 feet AGL
broken clouds at 600 feet AGL
Weather: BR  (mist)

METAR text: EBBR 240150Z 18002KT 4500 BR SCT005 BKN006 02/01 Q1025 NOSIG
Conditions at: EBBR (BRUSSELS NATIONA, BE) observed 0150 UTC 24 January 2020
Temperature: 2.0°C (36°F)
Dewpoint: 1.0°C (34°F) [RH = 93%]
Pressure (altimeter): 30.27 inches Hg (1025.0 mb)
Winds: from the S (180 degrees) at 2 MPH (2 knots; 1.0 m/s)
Visibility: 2.80 miles (4.51 km)
Ceiling: 600 feet AGL
Clouds: scattered clouds at 500 feet AGL
broken clouds at 600 feet AGL
Weather: BR  (mist)

METAR text: EBBR 240120Z 24003KT 4000 BR SCT004 BKN005 02/01 Q1025 BECMG 6000 NSW
Conditions at: EBBR (BRUSSELS NATIONA, BE) observed 0120 UTC 24 January 2020
Temperature: 2.0°C (36°F)
Dewpoint: 1.0°C (34°F) [RH = 93%]
Pressure (altimeter): 30.27 inches Hg (1025.0 mb)
Winds: from the WSW (240 degrees) at 3 MPH (3 knots; 1.5 m/s)
Visibility: 2.49 miles (4.01 km)
Ceiling: 500 feet AGL
Clouds: scattered clouds at 400 feet AGL
broken clouds at 500 feet AGL
Weather: BR  (mist)

METAR text: EBBR 240050Z 21002KT 2500 BR SCT003 BKN004 02/01 Q1025 TEMPO 1200 BR BKN002
Conditions at: EBBR (BRUSSELS NATIONA, BE) observed 0050 UTC 24 January 2020
Temperature: 2.0°C (36°F)
Dewpoint: 1.0°C (34°F) [RH = 93%]
Pressure (altimeter): 30.27 inches Hg (1025.0 mb)
Winds: from the SSW (210 degrees) at 2 MPH (2 knots; 1.0 m/s)
Visibility: 1.55 miles (2.49 km)
Ceiling: 400 feet AGL
Clouds: scattered clouds at 300 feet AGL
broken clouds at 400 feet AGL
Weather: BR  (mist)

METAR text: EBBR 240020Z 19002KT 2000 BR BCFG BKN003 01/01 Q1026 TEMPO 1200 BR BKN002
Conditions at: EBBR (BRUSSELS NATIONA, BE) observed 0020 UTC 24 January 2020
Temperature: 1.0°C (34°F)
Dewpoint: 1.0°C (34°F) [RH = 100%]
Pressure (altimeter): 30.30 inches Hg (1026.0 mb)
Winds: from the S (190 degrees) at 2 MPH (2 knots; 1.0 m/s)
Visibility: 1.24 miles (2.00 km)
Ceiling: 300 feet AGL
Clouds: broken clouds at 300 feet AGL
Weather: BR BCFG  (mist, patches of fog)

METAR text: EBBR 232350Z VRB02KT 0700 R25L/1700U R25R/P2000N R01/1500U FG BKN002 01/01 Q1026 NOSIG
Conditions at: EBBR (BRUSSELS NATIONA, BE) observed 2350 UTC 23 January 2020
Temperature: 1.0°C (34°F)
Dewpoint: 1.0°C (34°F) [RH = 100%]
Pressure (altimeter): 30.30 inches Hg (1026.0 mb)
Winds: variable direction winds at 2 MPH (2 knots; 1.0 m/s)
Visibility: 0.43 miles (0.69 km)
Ceiling: 200 feet AGL
Clouds: broken clouds at 200 feet AGL
Weather: FG  (fog)

METAR text: EBBR 232320Z VRB02KT 0400 R25L/1300N R25R/P2000N R01/1500N FG BKN002 01/01 Q1026 TEMPO 0300 FG
Conditions at: EBBR (BRUSSELS NATIONA, BE) observed 2320 UTC 23 January 2020
Temperature: 1.0°C (34°F)
Dewpoint: 1.0°C (34°F) [RH = 100%]
Pressure (altimeter): 30.30 inches Hg (1026.0 mb)
Winds: variable direction winds at 2 MPH (2 knots; 1.0 m/s)
Visibility: 0.25 miles (0.40 km)
Ceiling: 200 feet AGL
Clouds: broken clouds at 200 feet AGL
Weather: FG  (fog)

METAR text: EBBR 232250Z VRB01KT 0500 R25L/1300U R25R/P2000N R01/1000D FG BKN002 01/01 Q1026 TEMPO 0300 FG
Conditions at: EBBR (BRUSSELS NATIONA, BE) observed 2250 UTC 23 January 2020
Temperature: 1.0°C (34°F)
Dewpoint: 1.0°C (34°F) [RH = 100%]
Pressure (altimeter): 30.30 inches Hg (1026.0 mb)
Winds: variable direction winds at 1 MPH (1 knots; 0.5 m/s)
Visibility: 0.31 miles (0.50 km)
Ceiling: 200 feet AGL
Clouds: broken clouds at 200 feet AGL
Weather: FG  (fog)

METAR text: EBBR 232220Z 09002KT 0900 R25L/1600D R25R/P2000N R01/1400N FG BKN002 01/01 Q1026 TEMPO 0500 FG
Conditions at: EBBR (BRUSSELS NATIONA, BE) observed 2220 UTC 23 January 2020
Temperature: 1.0°C (34°F)
Dewpoint: 1.0°C (34°F) [RH = 100%]
Pressure (altimeter): 30.30 inches Hg (1026.0 mb)
Winds: from the E (90 degrees) at 2 MPH (2 knots; 1.0 m/s)
Visibility: 0.56 miles (0.90 km)
Ceiling: 200 feet AGL
Clouds: broken clouds at 200 feet AGL
Weather: FG  (fog)

METAR text: EBBR 232150Z VRB02KT 0900 R25L/1900N R25R/P2000N R01/1700D FG BKN002 01/01 Q1026 TEMPO 0500 FG
Conditions at: EBBR (BRUSSELS NATIONA, BE) observed 2150 UTC 23 January 2020
Temperature: 1.0°C (34°F)
Dewpoint: 1.0°C (34°F) [RH = 100%]
Pressure (altimeter): 30.30 inches Hg (1026.0 mb)
Winds: variable direction winds at 2 MPH (2 knots; 1.0 m/s)
Visibility: 0.56 miles (0.90 km)
Ceiling: 200 feet AGL
Clouds: broken clouds at 200 feet AGL
Weather: FG  (fog)

METAR text: EBBR 232120Z 11003KT 080V140 0900 R25L/1600N R25R/P2000N R01/1700U FG BKN002 01/01 Q1026 TEMPO 0500 FG
Conditions at: EBBR (BRUSSELS NATIONA, BE) observed 2120 UTC 23 January 2020
Temperature: 1.0°C (34°F)
Dewpoint: 1.0°C (34°F) [RH = 100%]
Pressure (altimeter): 30.30 inches Hg (1026.0 mb)
Winds: from the ESE (110 degrees) at 3 MPH (3 knots; 1.5 m/s)
Visibility: 0.56 miles (0.90 km)
Ceiling: 200 feet AGL
Clouds: broken clouds at 200 feet AGL
Weather: FG  (fog)

METAR text: EBBR 232050Z VRB02KT 1000 R25L/1700D R25R/P2000N R01/1900N BR BCFG BKN002 01/01 Q1026 TEMPO 0800 FG
Conditions at: EBBR (BRUSSELS NATIONA, BE) observed 2050 UTC 23 January 2020
Temperature: 1.0°C (34°F)
Dewpoint: 1.0°C (34°F) [RH = 100%]
Pressure (altimeter): 30.30 inches Hg (1026.0 mb)
Winds: variable direction winds at 2 MPH (2 knots; 1.0 m/s)
Visibility: 0.62 miles (1.00 km)
Ceiling: 200 feet AGL
Clouds: broken clouds at 200 feet AGL
Weather: BCFG BR  (patches of fog, mist)

METAR text: EBBR 232020Z VRB02KT 1200 R25L/P2000N R25R/P2000N R01/1900N BR BKN002 02/01 Q1027 NOSIG
Conditions at: EBBR (BRUSSELS NATIONA, BE) observed 2020 UTC 23 January 2020
Temperature: 2.0°C (36°F)
Dewpoint: 1.0°C (34°F) [RH = 93%]
Pressure (altimeter): 30.32 inches Hg (1027.0 mb)
Winds: variable direction winds at 2 MPH (2 knots; 1.0 m/s)
Visibility: 0.75 miles (1.21 km)
Ceiling: 200 feet AGL
Clouds: broken clouds at 200 feet AGL
Weather: BR  (mist)

METAR text: EBBR 231950Z 07003KT 2000 1200E R25L/P2000N R25R/P2000N R01/P2000N BR SCT002 BKN003 02/01 Q1027 TEMPO BKN002
Conditions at: EBBR (BRUSSELS NATIONA, BE) observed 1950 UTC 23 January 2020
Temperature: 2.0°C (36°F)
Dewpoint: 1.0°C (34°F) [RH = 93%]
Pressure (altimeter): 30.32 inches Hg (1027.0 mb)
Winds: from the ENE (70 degrees) at 3 MPH (3 knots; 1.5 m/s)
Visibility: 1.24 miles (2.00 km)
Ceiling: 300 feet AGL
Clouds: scattered clouds at 200 feet AGL
broken clouds at 300 feet AGL
Weather: BR  (mist)

METAR text: EBBR 231920Z 09003KT 060V130 2500 BR BKN003 02/01 Q1027 NOSIG
Conditions at: EBBR (BRUSSELS NATIONA, BE) observed 1920 UTC 23 January 2020
Temperature: 2.0°C (36°F)
Dewpoint: 1.0°C (34°F) [RH = 93%]
Pressure (altimeter): 30.32 inches Hg (1027.0 mb)
Winds: from the E (90 degrees) at 3 MPH (3 knots; 1.5 m/s)
Visibility: 1.55 miles (2.49 km)
Ceiling: 300 feet AGL
Clouds: broken clouds at 300 feet AGL
Weather: BR  (mist)

METAR text: EBBR 231850Z 07004KT 4000 BR BKN004 02/01 Q1027 NOSIG
Conditions at: EBBR (BRUSSELS NATIONA, BE) observed 1850 UTC 23 January 2020
Temperature: 2.0°C (36°F)
Dewpoint: 1.0°C (34°F) [RH = 93%]
Pressure (altimeter): 30.32 inches Hg (1027.0 mb)
Winds: from the ENE (70 degrees) at 5 MPH (4 knots; 2.1 m/s)
Visibility: 2.49 miles (4.01 km)
Ceiling: 400 feet AGL
Clouds: broken clouds at 400 feet AGL
Weather: BR  (mist)

METAR text: EBBR 231820Z 10004KT 070V130 4000 BR BKN004 02/01 Q1027 NOSIG
Conditions at: EBBR (BRUSSELS NATIONA, BE) observed 1820 UTC 23 January 2020
Temperature: 2.0°C (36°F)
Dewpoint: 1.0°C (34°F) [RH = 93%]
Pressure (altimeter): 30.32 inches Hg (1027.0 mb)
Winds: from the E (100 degrees) at 5 MPH (4 knots; 2.1 m/s)
Visibility: 2.49 miles (4.01 km)
Ceiling: 400 feet AGL
Clouds: broken clouds at 400 feet AGL
Weather: BR  (mist)

METAR text: EBBR 231750Z 10004KT 070V130 4000 BR BKN004 02/01 Q1027 NOSIG
Conditions at: EBBR (BRUSSELS NATIONA, BE) observed 1750 UTC 23 January 2020
Temperature: 2.0°C (36°F)
Dewpoint: 1.0°C (34°F) [RH = 93%]
Pressure (altimeter): 30.32 inches Hg (1027.0 mb)
Winds: from the E (100 degrees) at 5 MPH (4 knots; 2.1 m/s)
Visibility: 2.49 miles (4.01 km)
Ceiling: 400 feet AGL
Clouds: broken clouds at 400 feet AGL
Weather: BR  (mist)

METAR text: EBBR 231720Z 10004KT 070V130 4000 BR FEW003 BKN005 02/01 Q1027 NOSIG
Conditions at: EBBR (BRUSSELS NATIONA, BE) observed 1720 UTC 23 January 2020
Temperature: 2.0°C (36°F)
Dewpoint: 1.0°C (34°F) [RH = 93%]
Pressure (altimeter): 30.32 inches Hg (1027.0 mb)
Winds: from the E (100 degrees) at 5 MPH (4 knots; 2.1 m/s)
Visibility: 2.49 miles (4.01 km)
Ceiling: 500 feet AGL
Clouds: few clouds at 300 feet AGL
broken clouds at 500 feet AGL
Weather: BR  (mist)

METAR text: EBBR 231650Z 07006KT 4000 BR BKN005 02/01 Q1028 NOSIG
Conditions at: EBBR (BRUSSELS NATIONA, BE) observed 1650 UTC 23 January 2020
Temperature: 2.0°C (36°F)
Dewpoint: 1.0°C (34°F) [RH = 93%]
Pressure (altimeter): 30.35 inches Hg (1028.0 mb)
Winds: from the ENE (70 degrees) at 7 MPH (6 knots; 3.1 m/s)
Visibility: 2.49 miles (4.01 km)
Ceiling: 500 feet AGL
Clouds: broken clouds at 500 feet AGL
Weather: BR  (mist)

METAR text: EBBR 231620Z 07005KT 4000 BR BKN005 03/01 Q1028 NOSIG
Conditions at: EBBR (BRUSSELS NATIONA, BE) observed 1620 UTC 23 January 2020
Temperature: 3.0°C (37°F)
Dewpoint: 1.0°C (34°F) [RH = 87%]
Pressure (altimeter): 30.35 inches Hg (1028.0 mb)
Winds: from the ENE (70 degrees) at 6 MPH (5 knots; 2.6 m/s)
Visibility: 2.49 miles (4.01 km)
Ceiling: 500 feet AGL
Clouds: broken clouds at 500 feet AGL
Weather: BR  (mist)

METAR text: EBBR 231550Z 09004KT 070V130 5000 BR BKN006 03/02 Q1028 BECMG BKN005
Conditions at: EBBR (BRUSSELS NATIONA, BE) observed 1550 UTC 23 January 2020
Temperature: 3.0°C (37°F)
Dewpoint: 2.0°C (36°F) [RH = 93%]
Pressure (altimeter): 30.35 inches Hg (1028.0 mb)
Winds: from the E (90 degrees) at 5 MPH (4 knots; 2.1 m/s)
Visibility: 3 miles ( 5 km)
Ceiling: 600 feet AGL
Clouds: broken clouds at 600 feet AGL
Weather: BR  (mist)

METAR text: EBBR 231520Z 09005KT 070V130 6000 BKN006 03/02 Q1028 BECMG 5000 BR BKN005
Conditions at: EBBR (BRUSSELS NATIONA, BE) observed 1520 UTC 23 January 2020
Temperature: 3.0°C (37°F)
Dewpoint: 2.0°C (36°F) [RH = 93%]
Pressure (altimeter): 30.35 inches Hg (1028.0 mb)
Winds: from the E (90 degrees) at 6 MPH (5 knots; 2.6 m/s)
Visibility: 4 miles ( 6 km)
Ceiling: 600 feet AGL
Clouds: broken clouds at 600 feet AGL
Weather: no significant weather observed at this time

Forecast for: EBBR (BRUSSELS NATIONA, BE)
Text: TAF EBBR 242300Z 2500/2606 20003KT 4500 BR BKN006
Forecast period: 0000 to 1800 UTC 25 January 2020
Forecast type: FROM: standard forecast or significant change
Winds: from the SSW (200 degrees) at 3 MPH (3 knots; 1.5 m/s)
Visibility: 2.80 miles (4.51 km)
Ceiling: 600 feet AGL
Clouds: broken clouds at 600 feet AGL
Weather: BR  (mist)
Text: TEMPO 2501/2509 2000 BCFG BKN003
Forecast period: 0100 to 0900 UTC 25 January 2020
Forecast type: TEMPORARY: The following changes expected for less than half the time period
Visibility: 1.24 miles (2.00 km)
Ceiling: 300 feet AGL
Clouds: broken clouds at 300 feet AGL
Weather: BCFG  (patches of fog)
Text: PROB30
Forecast period: 0200 to 0900 UTC 25 January 2020
Forecast type: TEMPORARY: The following changes expected for less than half the time period
Visibility: 0.31 miles (0.50 km)
Ceiling: 100 feet AGL
Clouds: broken clouds at 100 feet AGL
Weather: FZFG  (freezing fog)
Text: TEMPO 2502/2509 0500 FZFG BKN001
Forecast period: 1800 UTC 25 January 2020 to 0600 UTC 26 January 2020
Forecast type: BECOMING: Conditions expected to become as follows by 2000 UTC 25 January 2020
Winds: from the SSW (200 degrees) at 3 MPH (3 knots; 1.5 m/s)
Visibility: 0.87 miles (1.40 km)
Ceiling: 600 feet AGL
Clouds: broken clouds at 600 feet AGL
Weather: BCFG  (patches of fog)
Text: BECMG 2518/2520 1400 BCFG
Forecast period: 2000 UTC 25 January 2020 to 0100 UTC 26 January 2020
Forecast type: TEMPORARY: The following changes expected for less than half the time period
Visibility: 0.50 miles (0.80 km)
Ceiling: indefinite ceiling with vertical visibility of 200 feet AGL
Clouds: obscured sky
Weather: FG  (fog)
Text: PROB30
Forecast period: 0100 to 0600 UTC 26 January 2020
Forecast type: TEMPORARY: The following changes expected for less than half the time period
Visibility: 2.17 miles (3.49 km)
Ceiling: 4000 feet AGL
Clouds: scattered clouds at 500 feet AGL
broken clouds at 4000 feet AGL
Weather: BR  (mist)